sensor_id;sensor_type;location;lat;lon;timestamp;temperature;humidity
36818;DHT22;22761;51.542;16.450;2022-12-24T00:00:43;11.57;73.75
36818;DHT22;22761;51.542;16.450;2022-12-24T00:03:12;11.66;73.49
36818;DHT22;22761;51.542;16.450;2022-12-24T00:05:40;11.75;73.13
36818;DHT22;22761;51.542;16.450;2022-12-24T00:08:07;11.85;72.59
36818;DHT22;22761;51.542;16.450;2022-12-24T00:10:34;11.96;72.21
36818;DHT22;22761;51.542;16.450;2022-12-24T00:13:01;12.08;71.94
36818;DHT22;22761;51.542;16.450;2022-12-24T00:15:28;12.01;71.42
36818;DHT22;22761;51.542;16.450;2022-12-24T00:17:55;11.88;71.25
36818;DHT22;22761;51.542;16.450;2022-12-24T00:20:22;11.78;71.21
36818;DHT22;22761;51.542;16.450;2022-12-24T00:22:50;11.71;71.38
36818;DHT22;22761;51.542;16.450;2022-12-24T00:25:17;11.62;71.48
36818;DHT22;22761;51.542;16.450;2022-12-24T00:27:45;11.55;71.60
36818;DHT22;22761;51.542;16.450;2022-12-24T00:30:12;11.51;71.74
36818;DHT22;22761;51.542;16.450;2022-12-24T00:32:39;11.41;71.96
36818;DHT22;22761;51.542;16.450;2022-12-24T00:35:07;11.41;72.23
36818;DHT22;22761;51.542;16.450;2022-12-24T00:37:35;11.35;72.07
36818;DHT22;22761;51.542;16.450;2022-12-24T00:40:03;11.27;72.20
36818;DHT22;22761;51.542;16.450;2022-12-24T00:42:30;11.16;72.66
36818;DHT22;22761;51.542;16.450;2022-12-24T00:44:57;11.11;72.83
36818;DHT22;22761;51.542;16.450;2022-12-24T00:47:24;11.04;72.96
36818;DHT22;22761;51.542;16.450;2022-12-24T00:49:51;10.98;73.42
36818;DHT22;22761;51.542;16.450;2022-12-24T00:52:18;10.92;73.81
36818;DHT22;22761;51.542;16.450;2022-12-24T00:54:46;10.89;73.84
36818;DHT22;22761;51.542;16.450;2022-12-24T00:57:13;10.88;74.10
36818;DHT22;22761;51.542;16.450;2022-12-24T00:59:41;10.93;74.36
36818;DHT22;22761;51.542;16.450;2022-12-24T01:02:08;11.02;74.38
36818;DHT22;22761;51.542;16.450;2022-12-24T01:04:35;11.07;74.21
36818;DHT22;22761;51.542;16.450;2022-12-24T01:07:20;11.11;73.82
36818;DHT22;22761;51.542;16.450;2022-12-24T01:09:48;11.16;73.45
36818;DHT22;22761;51.542;16.450;2022-12-24T01:12:15;11.21;73.16
36818;DHT22;22761;51.542;16.450;2022-12-24T01:14:42;11.26;73.24
36818;DHT22;22761;51.542;16.450;2022-12-24T01:17:09;11.31;73.13
36818;DHT22;22761;51.542;16.450;2022-12-24T01:19:36;11.37;72.94
36818;DHT22;22761;51.542;16.450;2022-12-24T01:22:03;11.40;72.61
36818;DHT22;22761;51.542;16.450;2022-12-24T01:24:30;11.37;72.64
36818;DHT22;22761;51.542;16.450;2022-12-24T01:26:57;11.40;72.71
36818;DHT22;22761;51.542;16.450;2022-12-24T01:29:24;11.41;72.69
36818;DHT22;22761;51.542;16.450;2022-12-24T01:31:51;11.41;72.72
36818;DHT22;22761;51.542;16.450;2022-12-24T01:34:18;11.44;72.67
36818;DHT22;22761;51.542;16.450;2022-12-24T01:36:45;11.45;72.45
36818;DHT22;22761;51.542;16.450;2022-12-24T01:39:12;11.48;72.45
36818;DHT22;22761;51.542;16.450;2022-12-24T01:41:39;11.52;72.49
36818;DHT22;22761;51.542;16.450;2022-12-24T01:44:31;11.50;72.93
36818;DHT22;22761;51.542;16.450;2022-12-24T01:47:18;11.47;73.11
36818;DHT22;22761;51.542;16.450;2022-12-24T01:49:53;11.50;73.10
36818;DHT22;22761;51.542;16.450;2022-12-24T01:52:27;11.50;72.88
36818;DHT22;22761;51.542;16.450;2022-12-24T01:55:05;11.54;72.69
36818;DHT22;22761;51.542;16.450;2022-12-24T01:57:38;11.50;72.85
36818;DHT22;22761;51.542;16.450;2022-12-24T02:00:10;11.55;72.94
36818;DHT22;22761;51.542;16.450;2022-12-24T02:02:44;11.55;73.02
36818;DHT22;22761;51.542;16.450;2022-12-24T02:05:21;11.58;73.08
36818;DHT22;22761;51.542;16.450;2022-12-24T02:07:45;11.61;73.15
36818;DHT22;22761;51.542;16.450;2022-12-24T02:10:14;11.64;73.13
36818;DHT22;22761;51.542;16.450;2022-12-24T02:12:43;11.66;73.03
36818;DHT22;22761;51.542;16.450;2022-12-24T02:15:14;11.69;72.96
36818;DHT22;22761;51.542;16.450;2022-12-24T02:18:01;11.69;72.98
36818;DHT22;22761;51.542;16.450;2022-12-24T02:31:43;11.72;71.78
36818;DHT22;22761;51.542;16.450;2022-12-24T02:34:27;11.68;71.87
36818;DHT22;22761;51.542;16.450;2022-12-24T02:40:38;11.66;71.94
36818;DHT22;22761;51.542;16.450;2022-12-24T02:42:25;11.68;72.14
36818;DHT22;22761;51.542;16.450;2022-12-24T02:44:57;11.68;72.18
36818;DHT22;22761;51.542;16.450;2022-12-24T02:47:26;11.71;72.36
36818;DHT22;22761;51.542;16.450;2022-12-24T02:49:54;11.71;72.39
36818;DHT22;22761;51.542;16.450;2022-12-24T02:52:38;11.76;72.34
36818;DHT22;22761;51.542;16.450;2022-12-24T02:55:06;11.69;72.54
36818;DHT22;22761;51.542;16.450;2022-12-24T02:57:59;11.71;72.56
36818;DHT22;22761;51.542;16.450;2022-12-24T03:00:25;11.76;72.38
36818;DHT22;22761;51.542;16.450;2022-12-24T03:03:29;11.82;72.39
36818;DHT22;22761;51.542;16.450;2022-12-24T03:06:04;11.79;72.59
36818;DHT22;22761;51.542;16.450;2022-12-24T03:09:01;11.83;72.50
36818;DHT22;22761;51.542;16.450;2022-12-24T03:11:11;11.88;71.96
36818;DHT22;22761;51.542;16.450;2022-12-24T03:13:41;11.82;71.92
36818;DHT22;22761;51.542;16.450;2022-12-24T03:16:13;11.80;72.17
36818;DHT22;22761;51.542;16.450;2022-12-24T03:18:45;11.79;72.38
36818;DHT22;22761;51.542;16.450;2022-12-24T03:21:30;11.78;72.35
36818;DHT22;22761;51.542;16.450;2022-12-24T03:23:57;11.78;72.56
36818;DHT22;22761;51.542;16.450;2022-12-24T03:26:27;11.83;72.59
36818;DHT22;22761;51.542;16.450;2022-12-24T03:28:55;11.85;72.22
36818;DHT22;22761;51.542;16.450;2022-12-24T03:31:22;11.90;72.05
36818;DHT22;22761;51.542;16.450;2022-12-24T03:33:50;11.92;71.95
36818;DHT22;22761;51.542;16.450;2022-12-24T03:36:17;11.90;71.79
36818;DHT22;22761;51.542;16.450;2022-12-24T03:38:44;11.94;71.82
36818;DHT22;22761;51.542;16.450;2022-12-24T03:41:11;11.96;71.82
36818;DHT22;22761;51.542;16.450;2022-12-24T03:43:38;11.93;72.11
36818;DHT22;22761;51.542;16.450;2022-12-24T03:46:06;11.93;72.09
36818;DHT22;22761;51.542;16.450;2022-12-24T03:48:35;11.89;72.62
36818;DHT22;22761;51.542;16.450;2022-12-24T03:51:02;11.88;72.54
36818;DHT22;22761;51.542;16.450;2022-12-24T03:53:30;11.89;72.23
36818;DHT22;22761;51.542;16.450;2022-12-24T03:55:57;11.92;72.22
36818;DHT22;22761;51.542;16.450;2022-12-24T03:58:24;11.92;72.13
36818;DHT22;22761;51.542;16.450;2022-12-24T04:00:53;11.93;72.07
36818;DHT22;22761;51.542;16.450;2022-12-24T04:03:20;11.94;72.10
36818;DHT22;22761;51.542;16.450;2022-12-24T04:05:47;11.97;72.26
36818;DHT22;22761;51.542;16.450;2022-12-24T04:08:14;11.96;72.39
36818;DHT22;22761;51.542;16.450;2022-12-24T04:10:41;11.99;72.29
36818;DHT22;22761;51.542;16.450;2022-12-24T04:13:08;11.99;71.98
36818;DHT22;22761;51.542;16.450;2022-12-24T04:15:35;11.99;71.83
36818;DHT22;22761;51.542;16.450;2022-12-24T04:18:03;12.03;71.63
36818;DHT22;22761;51.542;16.450;2022-12-24T04:20:30;12.03;71.61
36818;DHT22;22761;51.542;16.450;2022-12-24T04:22:57;12.03;71.56
36818;DHT22;22761;51.542;16.450;2022-12-24T04:25:24;12.03;71.52
36818;DHT22;22761;51.542;16.450;2022-12-24T04:27:51;11.99;71.33
36818;DHT22;22761;51.542;16.450;2022-12-24T04:30:18;11.96;71.28
36818;DHT22;22761;51.542;16.450;2022-12-24T04:32:45;11.93;71.27
36818;DHT22;22761;51.542;16.450;2022-12-24T04:35:13;11.90;71.25
36818;DHT22;22761;51.542;16.450;2022-12-24T04:37:40;11.90;71.08
36818;DHT22;22761;51.542;16.450;2022-12-24T04:40:08;11.86;71.45
36818;DHT22;22761;51.542;16.450;2022-12-24T04:42:36;11.83;71.47
36818;DHT22;22761;51.542;16.450;2022-12-24T04:45:04;11.82;71.61
36818;DHT22;22761;51.542;16.450;2022-12-24T04:47:31;11.78;71.83
36818;DHT22;22761;51.542;16.450;2022-12-24T04:49:58;11.82;71.86
36818;DHT22;22761;51.542;16.450;2022-12-24T04:52:27;11.83;71.98
36818;DHT22;22761;51.542;16.450;2022-12-24T04:54:54;11.83;71.98
36818;DHT22;22761;51.542;16.450;2022-12-24T04:57:21;11.89;71.82
36818;DHT22;22761;51.542;16.450;2022-12-24T04:59:48;11.89;71.76
36818;DHT22;22761;51.542;16.450;2022-12-24T05:02:15;11.92;71.61
36818;DHT22;22761;51.542;16.450;2022-12-24T05:04:42;11.96;71.48
36818;DHT22;22761;51.542;16.450;2022-12-24T05:07:09;11.96;71.45
36818;DHT22;22761;51.542;16.450;2022-12-24T05:09:36;11.97;71.60
36818;DHT22;22761;51.542;16.450;2022-12-24T05:12:05;11.99;71.61
36818;DHT22;22761;51.542;16.450;2022-12-24T05:14:32;11.99;71.50
36818;DHT22;22761;51.542;16.450;2022-12-24T05:16:59;12.00;71.86
36818;DHT22;22761;51.542;16.450;2022-12-24T05:19:26;12.01;71.80
36818;DHT22;22761;51.542;16.450;2022-12-24T05:21:53;12.01;71.75
36818;DHT22;22761;51.542;16.450;2022-12-24T05:24:39;12.00;71.73
36818;DHT22;22761;51.542;16.450;2022-12-24T05:27:24;11.96;71.92
36818;DHT22;22761;51.542;16.450;2022-12-24T05:29:51;11.90;72.04
36818;DHT22;22761;51.542;16.450;2022-12-24T05:32:19;11.89;72.25
36818;DHT22;22761;51.542;16.450;2022-12-24T05:34:46;11.88;72.25
36818;DHT22;22761;51.542;16.450;2022-12-24T05:37:15;11.89;72.08
36818;DHT22;22761;51.542;16.450;2022-12-24T05:39:42;11.89;71.70
36818;DHT22;22761;51.542;16.450;2022-12-24T05:42:10;11.88;71.47
36818;DHT22;22761;51.542;16.450;2022-12-24T05:44:37;11.89;71.49
36818;DHT22;22761;51.542;16.450;2022-12-24T05:47:04;11.92;71.56
36818;DHT22;22761;51.542;16.450;2022-12-24T05:49:31;11.90;71.59
36818;DHT22;22761;51.542;16.450;2022-12-24T05:51:58;11.82;71.98
36818;DHT22;22761;51.542;16.450;2022-12-24T05:54:25;11.93;72.34
36818;DHT22;22761;51.542;16.450;2022-12-24T05:56:52;11.96;71.95
36818;DHT22;22761;51.542;16.450;2022-12-24T05:59:19;11.90;71.77
36818;DHT22;22761;51.542;16.450;2022-12-24T06:01:47;11.80;71.86
36818;DHT22;22761;51.542;16.450;2022-12-24T06:04:14;11.78;71.65
36818;DHT22;22761;51.542;16.450;2022-12-24T06:06:41;11.68;71.73
36818;DHT22;22761;51.542;16.450;2022-12-24T06:09:08;11.57;71.67
36818;DHT22;22761;51.542;16.450;2022-12-24T06:11:36;11.44;71.83
36818;DHT22;22761;51.542;16.450;2022-12-24T06:14:03;11.31;71.81
36818;DHT22;22761;51.542;16.450;2022-12-24T06:16:30;11.17;72.03
36818;DHT22;22761;51.542;16.450;2022-12-24T06:18:57;11.09;72.37
36818;DHT22;22761;51.542;16.450;2022-12-24T06:21:24;10.99;72.34
36818;DHT22;22761;51.542;16.450;2022-12-24T06:23:51;10.93;72.51
36818;DHT22;22761;51.542;16.450;2022-12-24T06:26:21;10.98;72.49
36818;DHT22;22761;51.542;16.450;2022-12-24T06:28:49;10.98;72.51
36818;DHT22;22761;51.542;16.450;2022-12-24T06:31:20;10.90;72.46
36818;DHT22;22761;51.542;16.450;2022-12-24T06:33:49;10.85;72.52
36818;DHT22;22761;51.542;16.450;2022-12-24T06:36:22;10.79;72.68
36818;DHT22;22761;51.542;16.450;2022-12-24T06:38:50;10.72;72.96
36818;DHT22;22761;51.542;16.450;2022-12-24T06:41:19;10.67;73.19
36818;DHT22;22761;51.542;16.450;2022-12-24T06:43:50;10.64;73.22
36818;DHT22;22761;51.542;16.450;2022-12-24T06:46:19;10.58;73.29
36818;DHT22;22761;51.542;16.450;2022-12-24T06:48:47;10.57;73.43
36818;DHT22;22761;51.542;16.450;2022-12-24T06:51:15;10.48;73.68
36818;DHT22;22761;51.542;16.450;2022-12-24T06:53:47;10.45;73.77
36818;DHT22;22761;51.542;16.450;2022-12-24T06:56:29;10.40;73.97
36818;DHT22;22761;51.542;16.450;2022-12-24T06:58:57;10.34;74.35
36818;DHT22;22761;51.542;16.450;2022-12-24T07:01:25;10.30;74.52
36818;DHT22;22761;51.542;16.450;2022-12-24T07:03:52;10.28;74.51
36818;DHT22;22761;51.542;16.450;2022-12-24T07:06:26;10.24;74.48
36818;DHT22;22761;51.542;16.450;2022-12-24T07:08:53;10.20;74.49
36818;DHT22;22761;51.542;16.450;2022-12-24T07:11:22;10.19;74.44
36818;DHT22;22761;51.542;16.450;2022-12-24T07:13:49;10.20;74.62
36818;DHT22;22761;51.542;16.450;2022-12-24T07:16:16;10.13;74.85
36818;DHT22;22761;51.542;16.450;2022-12-24T07:18:43;10.16;74.91
36818;DHT22;22761;51.542;16.450;2022-12-24T07:21:11;10.17;74.75
36818;DHT22;22761;51.542;16.450;2022-12-24T07:23:38;10.16;74.86
36818;DHT22;22761;51.542;16.450;2022-12-24T07:26:05;10.17;74.97
36818;DHT22;22761;51.542;16.450;2022-12-24T07:28:33;10.20;74.94
36818;DHT22;22761;51.542;16.450;2022-12-24T07:31:00;10.21;74.78
36818;DHT22;22761;51.542;16.450;2022-12-24T07:33:27;10.21;74.73
36818;DHT22;22761;51.542;16.450;2022-12-24T07:36:04;10.24;74.71
36818;DHT22;22761;51.542;16.450;2022-12-24T07:38:32;10.21;74.62
36818;DHT22;22761;51.542;16.450;2022-12-24T07:40:59;10.19;74.62
36818;DHT22;22761;51.542;16.450;2022-12-24T07:43:27;10.19;74.77
36818;DHT22;22761;51.542;16.450;2022-12-24T07:45:56;10.24;74.65
36818;DHT22;22761;51.542;16.450;2022-12-24T07:48:25;10.21;74.60
36818;DHT22;22761;51.542;16.450;2022-12-24T07:50:54;10.23;74.85
36818;DHT22;22761;51.542;16.450;2022-12-24T07:53:22;10.19;74.80
36818;DHT22;22761;51.542;16.450;2022-12-24T07:55:50;10.19;74.81
36818;DHT22;22761;51.542;16.450;2022-12-24T07:58:17;10.14;75.13
36818;DHT22;22761;51.542;16.450;2022-12-24T08:00:44;10.16;75.23
36818;DHT22;22761;51.542;16.450;2022-12-24T08:03:19;10.16;75.13
36818;DHT22;22761;51.542;16.450;2022-12-24T08:05:46;10.17;75.04
36818;DHT22;22761;51.542;16.450;2022-12-24T08:08:14;10.12;75.37
36818;DHT22;22761;51.542;16.450;2022-12-24T08:10:44;10.14;75.32
36818;DHT22;22761;51.542;16.450;2022-12-24T08:13:11;10.19;75.46
36818;DHT22;22761;51.542;16.450;2022-12-24T08:15:38;10.17;75.22
36818;DHT22;22761;51.542;16.450;2022-12-24T08:18:05;10.21;75.02
36818;DHT22;22761;51.542;16.450;2022-12-24T08:20:32;10.23;74.88
36818;DHT22;22761;51.542;16.450;2022-12-24T08:22:59;10.13;75.44
36818;DHT22;22761;51.542;16.450;2022-12-24T08:25:26;10.16;75.56
36818;DHT22;22761;51.542;16.450;2022-12-24T08:27:53;10.21;75.48
36818;DHT22;22761;51.542;16.450;2022-12-24T08:30:20;10.24;75.50
36818;DHT22;22761;51.542;16.450;2022-12-24T08:32:47;10.27;75.73
36818;DHT22;22761;51.542;16.450;2022-12-24T08:35:15;10.33;75.62
36818;DHT22;22761;51.542;16.450;2022-12-24T08:37:42;10.34;75.51
36818;DHT22;22761;51.542;16.450;2022-12-24T08:40:11;10.37;75.25
36818;DHT22;22761;51.542;16.450;2022-12-24T08:42:38;10.41;75.00
36818;DHT22;22761;51.542;16.450;2022-12-24T08:45:06;10.43;75.15
36818;DHT22;22761;51.542;16.450;2022-12-24T08:47:35;10.45;74.92
36818;DHT22;22761;51.542;16.450;2022-12-24T08:50:07;10.44;74.54
36818;DHT22;22761;51.542;16.450;2022-12-24T08:52:32;10.41;74.44
36818;DHT22;22761;51.542;16.450;2022-12-24T08:54:59;10.35;74.86
36818;DHT22;22761;51.542;16.450;2022-12-24T08:57:26;10.40;74.96
36818;DHT22;22761;51.542;16.450;2022-12-24T08:59:53;10.44;74.99
36818;DHT22;22761;51.542;16.450;2022-12-24T09:02:20;10.47;74.36
36818;DHT22;22761;51.542;16.450;2022-12-24T09:04:48;10.43;74.45
36818;DHT22;22761;51.542;16.450;2022-12-24T09:07:14;10.38;74.38
36818;DHT22;22761;51.542;16.450;2022-12-24T09:09:41;10.37;74.78
36818;DHT22;22761;51.542;16.450;2022-12-24T09:12:09;10.38;74.72
36818;DHT22;22761;51.542;16.450;2022-12-24T09:14:37;10.41;74.80
36818;DHT22;22761;51.542;16.450;2022-12-24T09:17:04;10.43;74.68
36818;DHT22;22761;51.542;16.450;2022-12-24T09:19:33;10.47;74.30
36818;DHT22;22761;51.542;16.450;2022-12-24T09:22:03;10.45;74.56
36818;DHT22;22761;51.542;16.450;2022-12-24T09:24:30;10.49;74.67
36818;DHT22;22761;51.542;16.450;2022-12-24T09:26:57;10.51;74.48
36818;DHT22;22761;51.542;16.450;2022-12-24T09:29:24;10.54;74.32
36818;DHT22;22761;51.542;16.450;2022-12-24T09:31:51;10.55;74.04
36818;DHT22;22761;51.542;16.450;2022-12-24T09:34:21;10.58;73.75
36818;DHT22;22761;51.542;16.450;2022-12-24T09:36:48;10.55;73.85
36818;DHT22;22761;51.542;16.450;2022-12-24T09:39:15;10.54;74.06
36818;DHT22;22761;51.542;16.450;2022-12-24T09:44:52;10.49;73.52
36818;DHT22;22761;51.542;16.450;2022-12-24T09:47:36;10.47;73.56
36818;DHT22;22761;51.542;16.450;2022-12-24T09:52:56;10.35;73.94
36818;DHT22;22761;51.542;16.450;2022-12-24T09:55:42;10.41;73.75
36818;DHT22;22761;51.542;16.450;2022-12-24T09:58:15;10.38;74.04
36818;DHT22;22761;51.542;16.450;2022-12-24T10:00:41;10.38;73.84
36818;DHT22;22761;51.542;16.450;2022-12-24T10:03:14;10.34;74.09
36818;DHT22;22761;51.542;16.450;2022-12-24T10:06:13;10.38;74.35
36818;DHT22;22761;51.542;16.450;2022-12-24T10:11:53;10.45;74.06
36818;DHT22;22761;51.542;16.450;2022-12-24T10:17:19;10.49;73.88
36818;DHT22;22761;51.542;16.450;2022-12-24T10:20:17;10.49;73.95
36818;DHT22;22761;51.542;16.450;2022-12-24T10:22:49;10.54;73.96
36818;DHT22;22761;51.542;16.450;2022-12-24T10:25:29;10.60;73.95
36818;DHT22;22761;51.542;16.450;2022-12-24T10:27:59;10.61;73.86
36818;DHT22;22761;51.542;16.450;2022-12-24T10:30:27;10.62;73.83
36818;DHT22;22761;51.542;16.450;2022-12-24T10:32:54;10.62;73.76
36818;DHT22;22761;51.542;16.450;2022-12-24T10:35:32;10.62;73.78
36818;DHT22;22761;51.542;16.450;2022-12-24T10:38:00;10.64;74.02
36818;DHT22;22761;51.542;16.450;2022-12-24T10:40:34;10.62;74.13
36818;DHT22;22761;51.542;16.450;2022-12-24T10:43:00;10.65;74.16
36818;DHT22;22761;51.542;16.450;2022-12-24T10:45:38;10.67;74.05
36818;DHT22;22761;51.542;16.450;2022-12-24T10:48:10;10.67;73.72
36818;DHT22;22761;51.542;16.450;2022-12-24T10:50:49;10.67;74.01
36818;DHT22;22761;51.542;16.450;2022-12-24T10:56:07;10.68;74.02
36818;DHT22;22761;51.542;16.450;2022-12-24T10:58:35;10.68;74.10
36818;DHT22;22761;51.542;16.450;2022-12-24T11:01:03;10.71;74.01
36818;DHT22;22761;51.542;16.450;2022-12-24T11:03:34;10.76;73.64
36818;DHT22;22761;51.542;16.450;2022-12-24T11:06:12;10.72;73.91
36818;DHT22;22761;51.542;16.450;2022-12-24T11:08:43;10.76;74.03
36818;DHT22;22761;51.542;16.450;2022-12-24T11:11:19;10.83;73.97
36818;DHT22;22761;51.542;16.450;2022-12-24T11:13:54;10.85;74.04
36818;DHT22;22761;51.542;16.450;2022-12-24T11:16:32;10.89;73.86
36818;DHT22;22761;51.542;16.450;2022-12-24T11:19:04;10.85;74.10
36818;DHT22;22761;51.542;16.450;2022-12-24T11:21:38;10.88;73.92
36818;DHT22;22761;51.542;16.450;2022-12-24T11:24:29;10.89;74.49
36818;DHT22;22761;51.542;16.450;2022-12-24T11:27:23;10.99;74.52
36818;DHT22;22761;51.542;16.450;2022-12-24T11:29:46;11.16;74.50
36818;DHT22;22761;51.542;16.450;2022-12-24T11:32:17;11.26;73.95
36818;DHT22;22761;51.542;16.450;2022-12-24T11:34:45;11.31;73.35
36818;DHT22;22761;51.542;16.450;2022-12-24T11:37:20;11.31;73.66
36818;DHT22;22761;51.542;16.450;2022-12-24T11:40:00;11.31;73.55
36818;DHT22;22761;51.542;16.450;2022-12-24T11:42:35;11.26;73.86
36818;DHT22;22761;51.542;16.450;2022-12-24T11:47:45;11.26;73.89
36818;DHT22;22761;51.542;16.450;2022-12-24T11:50:31;11.21;73.87
36818;DHT22;22761;51.542;16.450;2022-12-24T11:53:19;11.17;74.27
36818;DHT22;22761;51.542;16.450;2022-12-24T11:55:55;11.17;74.52
36818;DHT22;22761;51.542;16.450;2022-12-24T11:58:52;11.21;74.60
36818;DHT22;22761;51.542;16.450;2022-12-24T12:04:21;11.30;74.30
36818;DHT22;22761;51.542;16.450;2022-12-24T12:10:20;11.33;74.51
36818;DHT22;22761;51.542;16.450;2022-12-24T12:13:22;11.33;74.59
36818;DHT22;22761;51.542;16.450;2022-12-24T12:18:41;11.26;75.27
36818;DHT22;22761;51.542;16.450;2022-12-24T12:24:02;11.27;75.49
36818;DHT22;22761;51.542;16.450;2022-12-24T12:26:30;11.28;75.63
36818;DHT22;22761;51.542;16.450;2022-12-24T12:31:58;11.28;75.92
36818;DHT22;22761;51.542;16.450;2022-12-24T12:34:38;11.24;75.97
36818;DHT22;22761;51.542;16.450;2022-12-24T12:37:20;11.26;75.53
36818;DHT22;22761;51.542;16.450;2022-12-24T12:39:45;11.28;76.16
36818;DHT22;22761;51.542;16.450;2022-12-24T12:42:34;11.37;75.98
36818;DHT22;22761;51.542;16.450;2022-12-24T12:45:15;11.35;75.67
36818;DHT22;22761;51.542;16.450;2022-12-24T12:47:57;11.34;76.32
36818;DHT22;22761;51.542;16.450;2022-12-24T12:56:20;11.48;76.34
36818;DHT22;22761;51.542;16.450;2022-12-24T12:59:01;11.47;76.43
36818;DHT22;22761;51.542;16.450;2022-12-24T13:01:49;11.47;76.57
36818;DHT22;22761;51.542;16.450;2022-12-24T13:22:00;11.62;76.53
36818;DHT22;22761;51.542;16.450;2022-12-24T13:24:29;11.65;76.60
36818;DHT22;22761;51.542;16.450;2022-12-24T13:37:51;11.83;76.03
36818;DHT22;22761;51.542;16.450;2022-12-24T13:40:26;11.80;75.94
36818;DHT22;22761;51.542;16.450;2022-12-24T13:45:42;11.88;75.90
36818;DHT22;22761;51.542;16.450;2022-12-24T13:50:58;11.86;75.66
36818;DHT22;22761;51.542;16.450;2022-12-24T13:53:41;11.86;75.61
36818;DHT22;22761;51.542;16.450;2022-12-24T13:58:51;11.85;75.79
36818;DHT22;22761;51.542;16.450;2022-12-24T14:01:31;11.86;75.62
36818;DHT22;22761;51.542;16.450;2022-12-24T14:03:54;11.92;75.49
36818;DHT22;22761;51.542;16.450;2022-12-24T14:06:35;12.01;75.17
36818;DHT22;22761;51.542;16.450;2022-12-24T14:09:13;12.00;74.84
36818;DHT22;22761;51.542;16.450;2022-12-24T14:14:38;12.04;72.69
36818;DHT22;22761;51.542;16.450;2022-12-24T14:17:31;11.99;73.09
36818;DHT22;22761;51.542;16.450;2022-12-24T14:20:11;11.97;72.96
36818;DHT22;22761;51.542;16.450;2022-12-24T14:22:46;12.01;71.74
36818;DHT22;22761;51.542;16.450;2022-12-24T14:25:23;11.97;72.27
36818;DHT22;22761;51.542;16.450;2022-12-24T14:28:06;11.88;72.48
36818;DHT22;22761;51.542;16.450;2022-12-24T14:30:34;11.83;72.43
36818;DHT22;22761;51.542;16.450;2022-12-24T14:33:01;11.78;72.75
36818;DHT22;22761;51.542;16.450;2022-12-24T14:35:36;11.78;72.57
36818;DHT22;22761;51.542;16.450;2022-12-24T14:38:11;11.73;72.92
36818;DHT22;22761;51.542;16.450;2022-12-24T14:41:06;11.73;72.95
36818;DHT22;22761;51.542;16.450;2022-12-24T14:52:16;11.92;72.70
36818;DHT22;22761;51.542;16.450;2022-12-24T14:54:43;11.92;72.41
36818;DHT22;22761;51.542;16.450;2022-12-24T14:57:17;11.90;72.46
36818;DHT22;22761;51.542;16.450;2022-12-24T14:59:53;11.90;72.54
36818;DHT22;22761;51.542;16.450;2022-12-24T15:02:50;11.89;72.64
36818;DHT22;22761;51.542;16.450;2022-12-24T15:05:23;11.90;72.31
36818;DHT22;22761;51.542;16.450;2022-12-24T15:08:01;11.86;72.31
36818;DHT22;22761;51.542;16.450;2022-12-24T15:10:36;11.83;72.07
36818;DHT22;22761;51.542;16.450;2022-12-24T15:13:40;11.79;72.39
36818;DHT22;22761;51.542;16.450;2022-12-24T15:16:33;11.73;72.29
36818;DHT22;22761;51.542;16.450;2022-12-24T15:19:17;11.72;72.01
36818;DHT22;22761;51.542;16.450;2022-12-24T15:21:41;11.75;72.01
36818;DHT22;22761;51.542;16.450;2022-12-24T15:24:33;11.68;72.10
36818;DHT22;22761;51.542;16.450;2022-12-24T15:27:11;11.69;71.30
36818;DHT22;22761;51.542;16.450;2022-12-24T15:29:38;11.65;71.89
36818;DHT22;22761;51.542;16.450;2022-12-24T15:32:05;11.62;71.66
36818;DHT22;22761;51.542;16.450;2022-12-24T15:34:46;11.59;71.56
36818;DHT22;22761;51.542;16.450;2022-12-24T15:37:29;11.55;71.54
36818;DHT22;22761;51.542;16.450;2022-12-24T15:40:08;11.52;71.48
36818;DHT22;22761;51.542;16.450;2022-12-24T15:42:41;11.44;71.77
36818;DHT22;22761;51.542;16.450;2022-12-24T15:45:16;11.43;71.69
36818;DHT22;22761;51.542;16.450;2022-12-24T15:47:55;11.44;71.91
36818;DHT22;22761;51.542;16.450;2022-12-24T15:50:29;11.41;71.92
36818;DHT22;22761;51.542;16.450;2022-12-24T15:53:10;11.44;71.98
36818;DHT22;22761;51.542;16.450;2022-12-24T15:55:38;11.40;72.18
36818;DHT22;22761;51.542;16.450;2022-12-24T15:58:23;11.40;72.22
36818;DHT22;22761;51.542;16.450;2022-12-24T16:06:21;11.37;72.03
36818;DHT22;22761;51.542;16.450;2022-12-24T16:08:49;11.30;72.51
36818;DHT22;22761;51.542;16.450;2022-12-24T16:16:43;11.10;72.97
36818;DHT22;22761;51.542;16.450;2022-12-24T16:19:28;11.04;73.05
36818;DHT22;22761;51.542;16.450;2022-12-24T16:21:59;10.99;73.80
36818;DHT22;22761;51.542;16.450;2022-12-24T16:24:34;10.98;74.02
36818;DHT22;22761;51.542;16.450;2022-12-24T16:27:04;10.93;73.84
36818;DHT22;22761;51.542;16.450;2022-12-24T16:29:31;10.89;74.09
36818;DHT22;22761;51.542;16.450;2022-12-24T16:31:58;10.85;74.32
36818;DHT22;22761;51.542;16.450;2022-12-24T16:34:29;10.81;74.67
36818;DHT22;22761;51.542;16.450;2022-12-24T16:37:00;10.74;74.89
36818;DHT22;22761;51.542;16.450;2022-12-24T16:39:33;10.67;75.13
36818;DHT22;22761;51.542;16.450;2022-12-24T16:42:06;10.67;75.44
36818;DHT22;22761;51.542;16.450;2022-12-24T16:44:52;10.64;75.53
36818;DHT22;22761;51.542;16.450;2022-12-24T16:47:31;10.60;75.58
36818;DHT22;22761;51.542;16.450;2022-12-24T16:50:00;10.57;75.78
36818;DHT22;22761;51.542;16.450;2022-12-24T16:52:30;10.60;75.75
36818;DHT22;22761;51.542;16.450;2022-12-24T16:55:00;10.58;75.56
36818;DHT22;22761;51.542;16.450;2022-12-24T16:57:28;10.58;75.41
36818;DHT22;22761;51.542;16.450;2022-12-24T16:59:55;10.60;75.25
36818;DHT22;22761;51.542;16.450;2022-12-24T17:02:23;10.58;75.17
36818;DHT22;22761;51.542;16.450;2022-12-24T17:04:51;10.61;74.97
36818;DHT22;22761;51.542;16.450;2022-12-24T17:07:19;10.58;75.04
36818;DHT22;22761;51.542;16.450;2022-12-24T17:09:47;10.61;75.10
36818;DHT22;22761;51.542;16.450;2022-12-24T17:12:15;10.62;74.96
36818;DHT22;22761;51.542;16.450;2022-12-24T17:14:42;10.65;74.71
36818;DHT22;22761;51.542;16.450;2022-12-24T17:17:24;10.67;74.87
36818;DHT22;22761;51.542;16.450;2022-12-24T17:19:56;10.67;75.13
36818;DHT22;22761;51.542;16.450;2022-12-24T17:22:25;10.67;75.32
36818;DHT22;22761;51.542;16.450;2022-12-24T17:24:56;10.68;75.41
36818;DHT22;22761;51.542;16.450;2022-12-24T17:27:23;10.70;75.55
36818;DHT22;22761;51.542;16.450;2022-12-24T17:29:50;10.65;75.71
36818;DHT22;22761;51.542;16.450;2022-12-24T17:32:17;10.62;75.92